createdAt,value
2018-10-15T00:00:21.043Z,7.90
2018-10-15T00:02:50.664Z,7.97
2018-10-15T00:05:20.328Z,8.83
2018-10-15T00:07:50.000Z,7.67
2018-10-15T00:10:19.775Z,8.50
2018-10-15T00:12:49.439Z,7.97
2018-10-15T00:15:22.253Z,8.20
2018-10-15T00:17:52.194Z,8.47
2018-10-15T00:20:22.398Z,7.97
2018-10-15T00:22:52.848Z,8.47
2018-10-15T00:25:22.508Z,7.87
2018-10-15T00:27:52.224Z,8.33
2018-10-15T00:30:21.852Z,8.37
2018-10-15T00:32:51.514Z,7.93
2018-10-15T00:35:21.160Z,8.50
2018-10-15T00:37:50.819Z,7.80
2018-10-15T00:40:20.462Z,8.33
2018-10-15T00:42:50.150Z,7.83
2018-10-15T00:45:19.819Z,8.30
2018-10-15T00:47:49.472Z,8.03
2018-10-15T00:50:19.113Z,7.87
2018-10-15T00:52:48.789Z,7.80
2018-10-15T00:55:18.484Z,7.40
2018-10-15T00:57:48.136Z,8.07
2018-10-15T01:00:18.325Z,8.00
2018-10-15T01:02:48.016Z,7.87
2018-10-15T01:05:17.701Z,7.20
2018-10-15T01:07:47.362Z,8.03
2018-10-15T01:10:16.987Z,7.40
2018-10-15T01:12:46.636Z,7.67
2018-10-15T01:15:16.264Z,8.20
2018-10-15T01:17:45.932Z,7.70
2018-10-15T01:20:15.573Z,8.23
2018-10-15T01:22:45.240Z,8.17
2018-10-15T01:25:14.869Z,8.10
2018-10-15T01:27:44.544Z,7.97
2018-10-15T01:30:14.188Z,8.27
2018-10-15T01:32:43.840Z,7.40
2018-10-15T01:35:13.468Z,7.97
2018-10-15T01:37:43.112Z,7.60
2018-10-15T01:40:12.724Z,7.73
2018-10-15T01:42:42.364Z,8.07
2018-10-15T01:45:12.017Z,7.70
2018-10-15T01:47:41.706Z,8.17
2018-10-15T01:50:11.336Z,7.63
2018-10-15T01:52:40.988Z,7.60
2018-10-15T01:55:10.621Z,7.53
2018-10-15T01:57:40.276Z,7.60
2018-10-15T02:00:10.624Z,7.70
2018-10-15T02:02:40.296Z,8.43
2018-10-15T02:05:10.356Z,8.27
2018-10-15T02:07:40.007Z,7.80
2018-10-15T02:10:09.716Z,8.43
2018-10-15T02:12:39.377Z,8.10
2018-10-15T02:15:09.120Z,8.60
2018-10-15T02:17:39.056Z,8.37
2018-10-15T02:20:09.715Z,7.57
2018-10-15T02:22:39.464Z,8.07
2018-10-15T02:25:09.496Z,7.97
2018-10-15T02:27:39.201Z,8.30
2018-10-15T02:30:10.362Z,8.10
2018-10-15T02:32:40.604Z,7.90
2018-10-15T02:35:10.325Z,8.60
2018-10-15T02:37:41.160Z,7.70
2018-10-15T02:40:10.835Z,7.73
2018-10-15T02:42:40.496Z,7.80
2018-10-15T02:45:10.789Z,7.83
2018-10-15T02:47:40.502Z,7.90
2018-10-15T02:50:11.236Z,7.87
2018-10-15T02:52:41.447Z,8.40
2018-10-15T02:55:11.128Z,8.23
2018-10-15T02:57:40.812Z,7.30
2018-10-15T03:00:12.647Z,7.63
2018-10-15T03:02:42.900Z,8.07
2018-10-15T03:05:13.199Z,7.77
2018-10-15T03:07:43.264Z,7.90
2018-10-15T03:10:12.896Z,7.47
2018-10-15T03:12:42.556Z,8.23
2018-10-15T03:15:12.460Z,8.10
2018-10-15T03:17:42.148Z,8.20
2018-10-15T03:20:12.941Z,9.03
2018-10-15T03:22:43.079Z,7.93
2018-10-15T03:25:12.850Z,7.77
2018-10-15T03:27:42.503Z,8.43
2018-10-15T03:30:12.685Z,8.30
2018-10-15T03:32:42.348Z,8.07
2018-10-15T03:35:12.528Z,8.20
2018-10-15T03:37:42.256Z,8.23
2018-10-15T03:40:11.907Z,7.63
2018-10-15T03:42:41.584Z,7.67
2018-10-15T03:45:11.224Z,7.90
2018-10-15T03:47:40.915Z,8.57
2018-10-15T03:50:10.578Z,8.13
2018-10-15T03:52:40.256Z,7.60
2018-10-15T03:55:09.912Z,8.40
2018-10-15T03:57:39.518Z,8.27
2018-10-15T04:00:09.275Z,7.80
2018-10-15T04:02:38.918Z,8.87
2018-10-15T04:05:08.602Z,8.10
2018-10-15T04:07:38.223Z,7.90
2018-10-15T04:10:08.024Z,7.53
2018-10-15T04:12:37.679Z,8.03
2018-10-15T04:15:08.449Z,8.00
2018-10-15T04:17:38.369Z,8.50
2018-10-15T04:20:08.569Z,8.20
2018-10-15T04:22:45.537Z,8.10
2018-10-15T04:25:15.700Z,7.60
2018-10-15T04:27:45.385Z,7.50
2018-10-15T04:30:15.271Z,8.27
2018-10-15T04:32:44.924Z,7.97
2018-10-15T04:35:14.612Z,7.33
2018-10-15T04:37:44.323Z,7.90
2018-10-15T04:40:14.409Z,7.70
2018-10-15T04:42:44.600Z,7.83
2018-10-15T04:45:14.656Z,8.53
2018-10-15T04:47:44.852Z,7.60
2018-10-15T04:50:14.543Z,7.63
2018-10-15T04:52:44.156Z,7.70
2018-10-15T04:55:13.896Z,8.23
2018-10-15T04:57:43.484Z,8.10
2018-10-15T05:00:13.926Z,7.53
2018-10-15T05:02:43.618Z,7.50
2018-10-15T05:05:14.033Z,8.07
2018-10-15T05:07:44.100Z,8.23
2018-10-15T05:10:13.748Z,7.80
2018-10-15T05:12:43.385Z,7.97
2018-10-15T05:15:13.288Z,7.93
2018-10-15T05:17:42.945Z,7.87
2018-10-15T05:20:13.511Z,7.70
2018-10-15T05:22:43.150Z,7.57
2018-10-15T05:25:12.876Z,8.00
2018-10-15T05:27:42.510Z,8.07
2018-10-15T05:30:12.232Z,8.23
2018-10-15T05:32:41.864Z,8.20
2018-10-15T05:35:12.612Z,7.20
2018-10-15T05:37:43.423Z,7.93
2018-10-15T05:40:13.121Z,8.20
2018-10-15T05:42:42.779Z,8.27
2018-10-15T05:45:13.412Z,7.80
2018-10-15T05:47:43.046Z,7.73
2018-10-15T05:50:13.549Z,8.37
2018-10-15T05:52:43.658Z,7.77
2018-10-15T05:55:13.805Z,8.00
2018-10-15T05:57:43.508Z,7.70
2018-10-15T06:00:14.773Z,7.50
2018-10-15T06:02:44.754Z,7.70
2018-10-15T06:05:14.741Z,8.10
2018-10-15T06:07:44.608Z,7.80
2018-10-15T06:10:15.655Z,7.53
2018-10-15T06:12:47.331Z,7.83
2018-10-15T06:15:17.012Z,7.83
2018-10-15T06:17:46.666Z,8.33
2018-10-15T06:20:16.332Z,7.70
2018-10-15T06:22:46.025Z,8.40
2018-10-15T06:25:16.096Z,7.70
2018-10-15T06:27:46.184Z,8.10
2018-10-15T06:30:17.112Z,7.63
2018-10-15T06:32:46.734Z,8.60
2018-10-15T06:35:16.413Z,7.40
2018-10-15T06:37:46.046Z,8.30
2018-10-15T06:40:15.724Z,7.50
2018-10-15T06:42:45.363Z,7.83
2018-10-15T06:45:15.060Z,8.07
2018-10-15T06:47:44.732Z,8.00
2018-10-15T06:50:14.398Z,7.63
2018-10-15T06:52:44.032Z,7.53
2018-10-15T06:55:13.732Z,7.60
2018-10-15T06:57:43.348Z,8.33
2018-10-15T07:00:13.566Z,8.00
2018-10-15T07:02:43.159Z,7.40
2018-10-15T07:05:12.817Z,7.77
2018-10-15T07:07:42.526Z,8.40
2018-10-15T07:10:12.259Z,7.77
2018-10-15T07:12:41.868Z,7.90
2018-10-15T07:15:12.620Z,7.90
2018-10-15T07:17:42.708Z,7.87
2018-10-15T07:20:12.403Z,7.77
2018-10-15T07:22:42.044Z,7.20
2018-10-15T07:25:27.936Z,7.57
2018-10-15T07:27:57.812Z,7.53
2018-10-15T07:30:29.285Z,7.33
2018-10-15T07:32:58.938Z,7.13
2018-10-15T07:35:28.644Z,8.07
2018-10-15T07:37:58.307Z,7.60
2018-10-15T07:40:27.987Z,7.57
2018-10-15T07:42:57.616Z,7.23
2018-10-15T07:45:27.288Z,6.83
2018-10-15T07:47:56.928Z,7.50
2018-10-15T07:50:26.616Z,8.03
2018-10-15T07:52:56.268Z,6.97
2018-10-15T07:55:25.944Z,7.83
2018-10-15T07:57:55.588Z,7.70
2018-10-15T08:00:26.448Z,7.77
2018-10-15T08:02:56.268Z,7.07
2018-10-15T08:05:26.558Z,7.60
2018-10-15T08:07:56.200Z,7.33
2018-10-15T08:10:27.049Z,6.70
2018-10-15T08:12:56.696Z,7.00
2018-10-15T08:15:26.449Z,7.30
2018-10-15T08:17:56.076Z,6.70
2018-10-15T08:20:25.744Z,7.17
2018-10-15T08:22:55.361Z,6.80
2018-10-15T08:25:25.040Z,7.10
2018-10-15T08:27:54.690Z,7.07
2018-10-15T08:30:24.363Z,7.50
2018-10-15T08:32:54.024Z,7.20
2018-10-15T08:35:23.703Z,6.80
2018-10-15T08:37:53.352Z,7.20
2018-10-15T08:40:23.000Z,7.80
2018-10-15T08:42:53.123Z,7.23
2018-10-15T08:45:24.080Z,7.50
2018-10-15T08:47:54.169Z,7.50
2018-10-15T08:50:23.935Z,6.50
2018-10-15T08:52:53.600Z,7.40
2018-10-15T08:55:23.394Z,7.50
2018-10-15T08:57:53.062Z,6.63
2018-10-15T09:00:24.720Z,7.17
2018-10-15T09:02:54.505Z,6.63
2018-10-15T09:05:24.120Z,7.33
2018-10-15T09:07:53.857Z,7.03
2018-10-15T09:10:23.454Z,6.97
2018-10-15T09:12:53.147Z,6.63
2018-10-15T09:15:24.016Z,6.70
2018-10-15T09:17:53.694Z,7.00
2018-10-15T09:20:23.380Z,6.83
2018-10-15T09:22:53.012Z,7.30
2018-10-15T09:25:22.668Z,6.20
2018-10-15T09:27:52.304Z,6.67
2018-10-15T09:30:23.221Z,6.70
2018-10-15T09:32:52.902Z,7.00
2018-10-15T09:35:22.694Z,6.73
2018-10-15T09:37:52.420Z,6.87
2018-10-15T09:40:22.999Z,6.90
2018-10-15T09:42:52.697Z,6.53
2018-10-15T09:45:22.354Z,6.60
2018-10-15T09:47:52.829Z,6.83
2018-10-15T09:50:22.537Z,6.37
2018-10-15T09:52:52.243Z,6.00
2018-10-15T09:55:21.863Z,6.67
2018-10-15T09:57:51.509Z,6.40
2018-10-15T10:00:26.319Z,6.65
2018-10-15T10:02:56.673Z,6.37
2018-10-15T10:05:26.336Z,6.45
2018-10-15T10:07:56.053Z,6.25
2018-10-15T10:10:25.648Z,6.12
2018-10-15T10:12:55.322Z,6.50
2018-10-15T10:15:24.976Z,5.95
2018-10-15T10:17:54.732Z,6.08
2018-10-15T10:20:24.344Z,6.25
2018-10-15T10:22:54.056Z,6.00
2018-10-15T10:25:23.675Z,5.95
2018-10-15T10:27:53.295Z,5.90
2018-10-15T10:30:22.946Z,5.92
2018-10-15T10:32:52.598Z,6.10
2018-10-15T10:35:46.018Z,6.47
2018-10-15T10:38:19.523Z,5.90
2018-10-15T10:40:49.274Z,6.20
2018-10-15T10:43:18.881Z,6.03
2018-10-15T10:45:48.550Z,5.60
2018-10-15T10:48:19.061Z,6.00
2018-10-15T10:50:48.997Z,5.45
2018-10-15T10:53:19.132Z,5.58
2018-10-15T10:55:49.240Z,5.72
2018-10-15T10:58:19.172Z,5.62
2018-10-15T11:00:49.275Z,5.47
2018-10-15T11:03:19.520Z,5.87
2018-10-15T11:05:50.478Z,4.97
2018-10-15T11:08:20.809Z,5.60
2018-10-15T11:10:50.683Z,5.70
2018-10-15T11:13:20.779Z,5.35
2018-10-15T11:15:50.732Z,5.35
2018-10-15T11:18:20.738Z,5.53
2018-10-15T11:20:50.673Z,5.30
2018-10-15T11:23:20.664Z,5.00
2018-10-15T11:25:50.778Z,4.97
2018-10-15T11:28:20.708Z,5.40
2018-10-15T11:30:50.820Z,5.17
2018-10-15T11:33:20.739Z,5.20
2018-10-15T11:35:50.852Z,5.22
2018-10-15T11:38:20.784Z,5.35
2018-10-15T11:40:50.776Z,5.47
2018-10-15T11:43:20.785Z,5.22
2018-10-15T11:45:50.771Z,5.20
2018-10-15T11:48:20.772Z,4.90
2018-10-15T11:50:50.703Z,5.28
2018-10-15T11:53:20.613Z,4.40
2018-10-15T11:55:50.543Z,4.75
2018-10-15T11:58:20.343Z,4.95
2018-10-15T12:00:50.411Z,5.28
2018-10-15T12:03:20.317Z,4.87
2018-10-15T12:05:50.353Z,4.97
2018-10-15T12:08:20.360Z,5.10
2018-10-15T12:10:50.405Z,4.62
2018-10-15T12:13:20.396Z,4.90
2018-10-15T12:15:50.415Z,4.70
2018-10-15T12:18:20.336Z,5.08
2018-10-15T12:20:50.461Z,4.85
2018-10-15T12:23:20.376Z,4.70
2018-10-15T12:25:50.396Z,4.75
2018-10-15T12:28:20.661Z,4.72
2018-10-15T12:30:50.718Z,5.30
2018-10-15T12:33:20.827Z,4.30
2018-10-15T12:35:50.747Z,4.62
2018-10-15T12:38:20.808Z,4.37
2018-10-15T12:40:50.788Z,4.35
2018-10-15T12:43:20.819Z,4.67
2018-10-15T12:45:51.196Z,4.28
2018-10-15T12:48:21.207Z,5.00
2018-10-15T12:50:51.148Z,4.37
2018-10-15T12:53:21.885Z,4.33
2018-10-15T12:55:51.835Z,4.50
2018-10-15T12:58:21.712Z,4.50
2018-10-15T13:00:51.552Z,4.30
2018-10-15T13:03:21.423Z,4.47
2018-10-15T13:05:51.436Z,4.20
2018-10-15T13:08:21.449Z,4.87
2018-10-15T13:10:51.416Z,4.75
2018-10-15T13:13:21.396Z,4.45
2018-10-15T13:15:51.432Z,4.62
2018-10-15T13:18:21.436Z,4.97
2018-10-15T13:20:51.336Z,4.55
2018-10-15T13:23:21.428Z,4.40
2018-10-15T13:25:51.368Z,4.30
2018-10-15T13:28:21.490Z,4.10
2018-10-15T13:30:51.471Z,4.15
2018-10-15T13:33:21.443Z,4.37
2018-10-15T13:35:51.476Z,4.08
2018-10-15T13:38:21.399Z,4.45
2018-10-15T13:40:51.352Z,4.58
2018-10-15T13:43:21.249Z,4.20
2018-10-15T13:45:51.180Z,4.25
2018-10-15T13:48:21.069Z,4.33
2018-10-15T13:50:51.040Z,3.70
2018-10-15T13:53:20.973Z,4.50
2018-10-15T13:55:50.663Z,4.25
2018-10-15T13:58:20.292Z,4.08
2018-10-15T14:00:49.956Z,4.25
2018-10-15T14:03:19.628Z,4.62
2018-10-15T14:05:49.248Z,4.20
2018-10-15T14:08:18.951Z,4.22
2018-10-15T14:10:48.588Z,4.40
2018-10-15T14:13:18.288Z,4.35
2018-10-15T14:15:47.916Z,4.30
2018-10-15T14:18:17.552Z,4.33
2018-10-15T14:20:47.264Z,4.67
2018-10-15T14:23:16.942Z,6.60
2018-10-15T14:25:46.567Z,4.42
2018-10-15T14:28:16.216Z,4.37
2018-10-15T14:30:45.898Z,4.25
2018-10-15T14:33:15.552Z,3.95
2018-10-15T14:35:45.189Z,3.77
2018-10-15T14:38:14.834Z,4.08
2018-10-15T14:40:44.929Z,4.62
2018-10-15T14:43:14.552Z,4.47
2018-10-15T14:45:44.221Z,3.98
2018-10-15T14:48:13.860Z,3.98
2018-10-15T14:50:43.485Z,4.20
2018-10-15T14:53:13.173Z,4.05
2018-10-15T14:55:42.828Z,3.72
2018-10-15T14:58:12.512Z,4.20
2018-10-15T15:00:42.526Z,3.95
2018-10-15T15:03:12.300Z,4.17
2018-10-15T15:05:41.928Z,4.08
2018-10-15T15:08:11.663Z,4.00
2018-10-15T15:10:52.388Z,3.92
2018-10-15T15:13:33.167Z,4.00
2018-10-15T15:16:02.861Z,4.35
2018-10-15T15:18:32.481Z,4.20
2018-10-15T15:21:02.173Z,4.35
2018-10-15T15:23:31.834Z,4.75
2018-10-15T15:26:01.508Z,4.20
2018-10-15T15:28:31.161Z,4.00
2018-10-15T15:31:00.812Z,4.35
2018-10-15T15:33:30.476Z,4.15
2018-10-15T15:36:00.172Z,4.22
2018-10-15T15:38:29.844Z,4.22
2018-10-15T15:40:59.496Z,4.42
2018-10-15T15:43:29.211Z,4.45
2018-10-15T15:45:58.859Z,4.80
2018-10-15T15:48:28.484Z,4.95
2018-10-15T15:50:58.182Z,4.58
2018-10-15T15:53:27.821Z,4.53
2018-10-15T15:55:57.480Z,4.90
2018-10-15T15:58:27.196Z,4.17
2018-10-15T16:00:56.840Z,4.50
2018-10-15T16:03:26.460Z,4.72
2018-10-15T16:05:56.168Z,4.17
2018-10-15T16:08:25.816Z,4.60
2018-10-15T16:10:55.533Z,4.78
2018-10-15T16:13:25.756Z,4.72
2018-10-15T16:15:55.392Z,4.65
2018-10-15T16:18:25.058Z,5.10
2018-10-15T16:20:54.704Z,4.87
2018-10-15T16:23:24.403Z,4.47
2018-10-15T16:25:54.041Z,5.17
2018-10-15T16:28:23.740Z,4.05
2018-10-15T16:30:53.440Z,4.22
2018-10-15T16:33:23.053Z,4.50
2018-10-15T16:35:52.753Z,4.28
2018-10-15T16:38:22.600Z,4.53
2018-10-15T16:40:52.220Z,4.50
2018-10-15T16:43:21.853Z,4.25
2018-10-15T16:45:51.565Z,4.85
2018-10-15T16:48:21.226Z,4.03
2018-10-15T16:50:50.867Z,4.62
2018-10-15T16:53:20.524Z,4.97
2018-10-15T16:55:50.216Z,4.53
2018-10-15T16:58:19.927Z,3.98
2018-10-15T17:00:49.568Z,4.17
2018-10-15T17:03:19.252Z,4.60
2018-10-15T17:05:48.879Z,4.37
2018-10-15T17:08:18.508Z,4.03
2018-10-15T17:10:48.207Z,4.90
2018-10-15T17:13:17.835Z,4.20
2018-10-15T17:15:47.922Z,4.37
2018-10-15T17:18:17.600Z,5.07
2018-10-15T17:20:47.236Z,6.13
2018-10-15T17:23:16.924Z,5.60
2018-10-15T17:25:46.763Z,4.60
2018-10-15T17:28:16.422Z,4.80
2018-10-15T17:30:46.104Z,4.50
2018-10-15T17:33:15.908Z,4.93
2018-10-15T17:35:46.552Z,5.07
2018-10-15T17:38:16.176Z,5.33
2018-10-15T17:40:45.866Z,4.43
2018-10-15T17:43:15.642Z,4.73
2018-10-15T17:45:45.329Z,4.80
2018-10-15T17:48:15.260Z,4.37
2018-10-15T17:50:44.916Z,4.37
2018-10-15T17:53:14.568Z,5.03
2018-10-15T17:55:44.263Z,4.90
2018-10-15T17:58:13.924Z,4.87
2018-10-15T18:00:43.608Z,4.70
2018-10-15T18:03:13.283Z,4.87
2018-10-15T18:05:42.926Z,4.80
2018-10-15T18:08:12.633Z,5.00
2018-10-15T18:10:42.279Z,4.87
2018-10-15T18:13:11.915Z,4.60
2018-10-15T18:15:41.608Z,5.07
2018-10-15T18:18:11.248Z,5.30
2018-10-15T18:20:40.884Z,4.93
2018-10-15T18:23:10.568Z,4.30
2018-10-15T18:25:40.249Z,5.23
2018-10-15T18:28:10.183Z,5.10
2018-10-15T18:30:39.815Z,4.77
2018-10-15T18:33:09.464Z,5.17
2018-10-15T18:35:39.148Z,5.00
2018-10-15T18:38:08.765Z,5.17
2018-10-15T18:40:38.391Z,5.37
2018-10-15T18:43:08.079Z,5.70
2018-10-15T18:45:37.747Z,5.20
2018-10-15T18:48:07.407Z,5.40
2018-10-15T18:50:37.117Z,5.33
2018-10-15T18:53:06.752Z,5.80
2018-10-15T18:55:36.392Z,5.80
2018-10-15T18:58:06.556Z,5.33
2018-10-15T19:00:36.201Z,5.90
2018-10-15T19:03:05.879Z,5.00
2018-10-15T19:05:35.576Z,5.53
2018-10-15T19:08:05.308Z,5.00
2018-10-15T19:10:34.948Z,5.10
2018-10-15T19:13:04.783Z,5.73
2018-10-15T19:15:34.448Z,5.67
2018-10-15T19:18:04.248Z,5.37
2018-10-15T19:20:33.872Z,5.87
2018-10-15T19:23:03.490Z,5.23
2018-10-15T19:25:33.236Z,5.30
2018-10-15T19:28:02.871Z,5.23
2018-10-15T19:30:32.537Z,5.47
2018-10-15T19:33:02.232Z,4.97
2018-10-15T19:35:32.136Z,5.77
2018-10-15T19:38:01.832Z,5.97
2018-10-15T19:40:31.633Z,5.53
2018-10-15T19:43:01.336Z,5.73
2018-10-15T19:45:30.980Z,5.50
2018-10-15T19:48:01.132Z,5.67
2018-10-15T19:50:31.070Z,5.97
2018-10-15T19:53:00.713Z,6.67
2018-10-15T19:55:30.395Z,6.30
2018-10-15T19:58:00.136Z,6.53
2018-10-15T20:00:30.152Z,6.20
2018-10-15T20:02:59.874Z,6.17
2018-10-15T20:05:29.848Z,6.83
2018-10-15T20:07:59.831Z,6.47
2018-10-15T20:10:29.924Z,6.23
2018-10-15T20:12:59.855Z,6.93
2018-10-15T20:15:29.822Z,6.80
2018-10-15T20:17:59.600Z,7.07
2018-10-15T20:20:29.228Z,6.73
2018-10-15T20:22:58.898Z,6.40
2018-10-15T20:25:28.741Z,7.07
2018-10-15T20:27:58.400Z,6.87
2018-10-15T20:30:28.076Z,6.50
2018-10-15T20:32:57.865Z,7.10
2018-10-15T20:35:27.904Z,6.87
2018-10-15T20:37:57.600Z,6.73
2018-10-15T20:40:27.248Z,7.17
2018-10-15T20:42:57.826Z,6.50
2018-10-15T20:45:27.660Z,7.33
2018-10-15T20:47:57.373Z,7.20
2018-10-15T20:50:27.072Z,7.00
2018-10-15T20:52:56.749Z,7.17
2018-10-15T20:55:26.416Z,6.93
2018-10-15T20:57:56.044Z,7.33
2018-10-15T21:00:25.688Z,7.10
2018-10-15T21:02:55.431Z,7.50
2018-10-15T21:05:25.064Z,7.37
2018-10-15T21:07:54.771Z,7.77
2018-10-15T21:10:24.813Z,7.17
2018-10-15T21:12:54.439Z,7.67
2018-10-15T21:15:24.408Z,7.60
2018-10-15T21:17:54.212Z,7.70
2018-10-15T21:20:23.851Z,7.47
2018-10-15T21:22:53.534Z,7.53
2018-10-15T21:25:23.176Z,7.07
2018-10-15T21:27:52.828Z,7.03
2018-10-15T21:30:22.492Z,7.50
2018-10-15T21:32:52.119Z,7.17
2018-10-15T21:35:21.760Z,7.90
2018-10-15T21:37:51.440Z,7.73
2018-10-15T21:40:21.100Z,7.70
2018-10-15T21:42:50.741Z,8.20
2018-10-15T21:45:20.438Z,8.37
2018-10-15T21:47:50.105Z,8.10
2018-10-15T21:50:19.744Z,8.17
2018-10-15T21:52:49.466Z,7.97
2018-10-15T21:55:19.113Z,7.83
2018-10-15T21:57:48.815Z,7.80
2018-10-15T22:00:18.440Z,7.67
2018-10-15T22:02:48.098Z,7.43
2018-10-15T22:05:17.803Z,7.40
2018-10-15T22:07:47.792Z,7.37
2018-10-15T22:10:22.532Z,6.67
2018-10-15T22:12:52.458Z,7.70
2018-10-15T22:15:22.068Z,7.10
2018-10-15T22:17:51.687Z,7.10
2018-10-15T22:20:21.375Z,7.37
2018-10-15T22:22:51.016Z,7.43
2018-10-15T22:25:20.634Z,7.10
2018-10-15T22:27:50.293Z,7.23
2018-10-15T22:30:19.940Z,7.80
2018-10-15T22:32:49.543Z,7.37
2018-10-15T22:35:19.247Z,8.00
2018-10-15T22:37:48.869Z,7.20
2018-10-15T22:40:18.552Z,7.33
2018-10-15T22:42:48.179Z,6.97
2018-10-15T22:45:17.811Z,6.73
2018-10-15T22:47:47.496Z,7.10
2018-10-15T22:50:17.121Z,7.40
2018-10-15T22:52:46.731Z,7.63
2018-10-15T22:55:16.507Z,8.03
2018-10-15T22:57:46.148Z,7.57
2018-10-15T23:00:15.851Z,7.67
2018-10-15T23:02:45.580Z,7.83
2018-10-15T23:05:15.713Z,8.50
2018-10-15T23:07:45.683Z,9.23
2018-10-15T23:10:20.384Z,9.30
2018-10-15T23:12:50.067Z,9.10
2018-10-15T23:15:19.704Z,9.30
2018-10-15T23:17:49.319Z,8.47
2018-10-15T23:20:18.973Z,9.33
2018-10-15T23:22:48.607Z,8.73
2018-10-15T23:25:18.286Z,8.73
2018-10-15T23:27:47.960Z,9.63
2018-10-15T23:30:17.610Z,9.10
2018-10-15T23:32:47.297Z,8.53
2018-10-15T23:35:16.921Z,8.60
2018-10-15T23:37:46.555Z,8.27
2018-10-15T23:40:16.235Z,8.57
2018-10-15T23:42:45.856Z,8.30
2018-10-15T23:45:15.482Z,8.50
2018-10-15T23:47:45.160Z,8.70
2018-10-15T23:50:15.667Z,8.80
2018-10-15T23:52:45.367Z,8.57
2018-10-15T23:55:15.047Z,8.13
2018-10-15T23:57:44.679Z,8.43
